青森空港の過去48時間の天気

青森空港 (Aomori)

現在時刻: 4/26 20:29 JST (4/26 11:29 UTC) 以下の時間は現地時間です。

過去48時間のMETAR気象情報
時間 風向 風速(m/s) 視程 気温(℃) 湿度(%) 気圧(hPa) 天気現象
26 20:00 南南西 7 10km以上 10 62 1009
26 19:00 南南西 7 10km以上 10 62 1008
26 18:00 南西 10 10km以上 11 58 1007
26 17:04 西南西 11 10km以上 12 50 1007
26 17:00 西南西 11 10km以上 12 54 1007
26 16:00 西南西 10 10km以上 14 47 1007
26 15:02 西 9 10km以上 15 41 1007
26 15:00 西 9 10km以上 15 41 1007
26 14:00 西 10 10km以上 15 33 1007
26 13:01 西 11 10km以上 15 41 1007
26 13:00 西 12 10km以上 14 41 1007
26 12:09 西 12 10km以上 14 41 1006
26 12:00 西 11 10km以上 14 44 1006
26 11:19 西 10 10km以上 14 44 1006
26 11:00 西 10 10km以上 14 47 1006
26 10:24 西南西 11 10km以上 13 51 1006
26 10:00 西南西 13 10km以上 13 51 1006
26 09:14 西南西 11 10km以上 12 67 1006
26 09:00 西南西 11 10km以上 11 71 1006
26 08:11 西南西 9 10km以上 10 71 1006
26 08:00 西南西 8 10km以上 10 76 1006
26 07:00 南西 6 10km以上 7 81 1006
26 06:40 南西 6 10km以上 7 81 1005
25 21:00 北東 4 10km以上 6 87 1003
25 20:00 北東 7 10km以上 7 81 1003
25 19:42 北東 8 10km以上 7 81 1003
25 19:00 北東 8 10km以上 6 87 1003
25 18:22 北東 8 10km以上 6 87 1003 弱い雨
25 18:00 北東 7 10km以上 6 87 1003 弱い雨
25 17:00 北東 8 10km以上 6 87 1003 弱い雨
25 16:00 北東 7 8,000m 6 87 1003 弱い雨
25 15:00 北北東 8 10km以上 6 87 1003 弱い雨
25 14:00 北北東 5 10km以上 7 87 1003 弱い雨
25 13:00 北北東 7 8,000m 7 87 1004
25 12:00 北北東 7 10km以上 7 81 1005 弱い雨
25 11:00 北東 10 10km以上 8 81 1005 弱い雨
25 10:00 北東 11 10km以上 8 76 1006 弱い雨
25 09:00 北東 10 10km以上 8 76 1006 弱い雨
25 08:08 北東 10 10km以上 8 76 1006 弱い雨
25 08:00 北東 10 10km以上 8 76 1006 弱い雨
25 07:21 北東 10 10km以上 7 81 1006 弱い雨
25 07:20 北東 10 10km以上 7 81 1006 弱い雨
25 07:00 北東 11 10km以上 8 76 1007 弱い雨
25 06:40 北東 11 10km以上 7 81 1006 弱い雨
24 21:00 北北東 4 10km以上 8 87 1011 弱い雨
RJSA 261100Z 20014KT CAVOK 10/03 Q1009
RJSA 261000Z 21013KT CAVOK 10/03 Q1008
RJSA 260900Z 23019KT CAVOK 11/03 Q1007
RJSA 260804Z 24021G31KT 9999 FEW040 12/02 Q1007 RMK 1CU040 A2974
RJSA 260800Z 24022KT 9999 FEW040 12/03 Q1007
RJSA 260700Z 24019G31KT CAVOK 14/03 Q1007
RJSA 260602Z 26017G27KT CAVOK 15/02 Q1007 RMK A2975
RJSA 260600Z 26018KT CAVOK 15/02 Q1007
RJSA 260500Z 27020G31KT 9999 FEW030 SCT/// 15/M01 Q1007
RJSA 260401Z 27022G32KT 9999 FEW030 SCT170 15/02 Q1007 RMK 1CU030 3AC170 A2974
RJSA 260400Z 27023KT 9999 FEW030 SCT170 14/01 Q1007
RJSA 260309Z 26023G33KT 9999 FEW030 BKN150 14/01 Q1006 RMK 1CU030 6AC150 A2972
RJSA 260300Z 26022KT 9999 FEW030 BKN150 14/02 Q1006
RJSA 260219Z 26019G30KT 9999 FEW030 BKN140 14/02 Q1006 RMK 1CU030 6AC140 A2971
RJSA 260200Z 26019KT 9999 FEW030 BKN140 14/03 Q1006
RJSA 260124Z 25021G33KT 9999 FEW025 SCT120 13/03 Q1006 RMK 1CU025 4AC120 A2971
RJSA 260100Z 25025KT 9999 FEW025 SCT130 13/03 Q1006
RJSA 260014Z 25021G35KT 9999 FEW020 SCT120 12/06 Q1006 RMK 1CU020 3AC120 A2971
RJSA 260000Z 25022KT 9999 FEW020 SCT120 BKN/// 11/06 Q1006
RJSA 252311Z 25018G29KT 9999 FEW015 BKN160 10/05 Q1006 RMK 1CU015 5AC160 A2972
RJSA 252300Z 25016KT 9999 FEW015 BKN160 10/06 Q1006
RJSA 252200Z 23012KT 9999 FEW010 SCT015 BKN070 07/04 Q1006
RJSA 252140Z 22012KT 9999 FEW010 SCT015 BKN020 07/04 Q1005 RMK 1ST010 3CU015 6CU020 A2970
RJSA 251200Z 05007KT 9999 FEW010 BKN050 06/04 Q1003
RJSA 251100Z 05014KT 9999 FEW010 BKN050 07/04 Q1003
RJSA 251042Z 04015G25KT 9999 FEW005 BKN050 07/04 Q1003 RMK 1ST005 7SC050 A2963
RJSA 251000Z 05015KT 9999 FEW002 SCT020 BKN040 06/04 Q1003
RJSA 250922Z 05016G26KT 9999 -RA FEW003 SCT020 BKN045 06/04 Q1003 RMK 1ST003 3SC020 7SC045 A2963
RJSA 250900Z 05014KT 9999 -RA FEW003 SCT020 BKN045 06/04 Q1003
RJSA 250800Z 04016KT 9999 -RA FEW002 SCT015 BKN025 06/04 Q1003
RJSA 250700Z 04013KT 8000 -RA FEW002 SCT015 BKN040 06/04 Q1003
RJSA 250600Z 03015KT 9999 -RA FEW002 SCT010 BKN020 06/04 Q1003
RJSA 250500Z 02010KT 340V040 9999 -RA FEW002 SCT010 BKN020 07/05 Q1003
RJSA 250400Z 02013KT 8000 RA FEW005 SCT015 BKN040 07/05 Q1004
RJSA 250300Z 03014KT 9999 -RA FEW005 SCT015 BKN050 07/04 Q1005
RJSA 250200Z 05019G30KT 9999 -RA FEW005 SCT020 BKN050 08/05 Q1005
RJSA 250100Z 05021G36KT 010V090 9999 -RA FEW005 SCT020 BKN050 08/04 Q1006
RJSA 250000Z 04020G30KT 010V070 9999 -RA FEW005 SCT020 BKN050 08/04 Q1006
RJSA 242308Z 04019G32KT 360V070 9999 -RA FEW005 SCT020 BKN050 08/04 Q1006 RMK 1ST005 3SC020 7SC050 A2973
RJSA 242300Z 04020KT 9999 -RA FEW005 SCT020 BKN050 08/04 Q1006
RJSA 242221Z 04020G30KT 350V070 9999 -RA FEW005 SCT020 BKN050 07/04 Q1006 RMK 1ST005 3SC020 7SC050 A2973
RJSA 242220Z 04020KT 350V070 9999 -RA FEW005 SCT020 BKN050 07/04 Q1006 RMK 1ST005 3SC020 7SC050 A2973
RJSA 242200Z 05022G35KT 020V080 9999 -RA FEW005 SCT020 BKN050 08/04 Q1007
RJSA 242140Z 05022G34KT 9999 -RA FEW005 SCT020 BKN050 07/04 Q1006 RMK 1ST005 3SC020 7SC050 A2973
RJSA 241200Z 02007KT 9999 -RA FEW005 BKN050 08/06 Q1011